Time;durP1;ratioP1;P1;durP2;ratioP2;P2;SDS_P1;SDS_P2;PMS_P1;PMS_P2;Temp;Humidity;BMP_temperature;BMP_pressure;BME280_temperature;BME280_humidity;BME280_pressure;Samples;Min_cycle;Max_cycle;Signal;HPM_P1;HPM_P2
2022/04/27 00:02:18;;;;;;;8.75;6.40;;;;;;;;;;5077038;28;20285;-71
2022/04/27 00:04:45;;;;;;;14.52;7.70;;;;;;;;;;5076894;28;20196;-71
2022/04/27 00:07:12;;;;;;;13.10;6.95;;;;;;;;;;5076376;28;20229;-70
2022/04/27 00:09:39;;;;;;;11.35;6.10;;;;;;;;;;5076026;28;20196;-70
2022/04/27 00:12:07;;;;;;;11.85;6.28;;;;;;;;;;5075933;28;20231;-70
2022/04/27 00:14:34;;;;;;;9.05;6.90;;;;;;;;;;5076296;28;20553;-70
2022/04/27 00:17:01;;;;;;;6.93;5.90;;;;;;;;;;5075802;28;20650;-70
2022/04/27 00:19:30;;;;;;;8.40;6.97;;;;;;;;;;5076204;28;20284;-71
2022/04/27 00:21:57;;;;;;;8.15;6.97;;;;;;;;;;5076199;28;20211;-71
2022/04/27 00:24:24;;;;;;;7.63;6.82;;;;;;;;;;5075840;28;20197;-71
2022/04/27 00:26:51;;;;;;;9.98;6.55;;;;;;;;;;5075935;28;20304;-71
2022/04/27 00:29:19;;;;;;;9.68;7.00;;;;;;;;;;5075827;28;20639;-71
2022/04/27 00:31:46;;;;;;;7.88;6.40;;;;;;;;;;5075595;28;20200;-71
2022/04/27 00:34:13;;;;;;;8.52;7.38;;;;;;;;;;5075696;28;20198;-70
2022/04/27 00:36:42;;;;;;;12.57;7.32;;;;;;;;;;5075729;28;20232;-70
2022/04/27 00:39:09;;;;;;;10.32;6.40;;;;;;;;;;5075467;28;20228;-70
2022/04/27 00:41:36;;;;;;;13.93;7.45;;;;;;;;;;5075329;28;20246;-70
2022/04/27 00:44:03;;;;;;;7.93;7.22;;;;;;;;;;5075756;28;20281;-71
2022/04/27 00:46:30;;;;;;;12.10;7.95;;;;;;;;;;5075598;28;20196;-71
2022/04/27 00:48:58;;;;;;;10.93;7.28;;;;;;;;;;5075648;28;20204;-70
2022/04/27 00:51:25;;;;;;;10.13;8.05;;;;;;;;;;5075175;28;20202;-70
2022/04/27 00:53:54;;;;;;;7.97;7.10;;;;;;;;;;5075237;28;20193;-70
2022/04/27 00:56:22;;;;;;;10.98;7.18;;;;;;;;;;5075400;28;20288;-70
2022/04/27 00:58:49;;;;;;;9.07;7.47;;;;;;;;;;5075555;28;20212;-71
2022/04/27 01:01:17;;;;;;;9.77;7.15;;;;;;;;;;5075249;28;20196;-71
2022/04/27 01:03:44;;;;;;;8.73;7.93;;;;;;;;;;5075313;28;20202;-70
2022/04/27 01:06:11;;;;;;;10.30;8.02;;;;;;;;;;5075384;28;20208;-71
2022/04/27 01:08:39;;;;;;;11.07;7.38;;;;;;;;;;5074994;28;20330;-71
2022/04/27 01:11:08;;;;;;;12.23;8.13;;;;;;;;;;5075170;28;20552;-70
2022/04/27 01:13:37;;;;;;;10.52;7.47;;;;;;;;;;5074728;28;20197;-70
2022/04/27 01:16:04;;;;;;;8.40;7.47;;;;;;;;;;5075211;28;20198;-70
2022/04/27 01:18:31;;;;;;;9.57;7.75;;;;;;;;;;5075028;28;20555;-70
2022/04/27 01:21:00;;;;;;;10.38;8.05;;;;;;;;;;5075625;28;20223;-71
2022/04/27 01:23:27;;;;;;;14.18;7.43;;;;;;;;;;5074936;28;20196;-70
2022/04/27 01:25:55;;;;;;;14.23;8.55;;;;;;;;;;5075477;28;20196;-71
2022/04/27 01:28:23;;;;;;;9.95;8.15;;;;;;;;;;5074428;28;20213;-71
2022/04/27 01:30:56;;;;;;;12.35;8.15;;;;;;;;;;5074471;28;20200;-71
2022/04/27 01:33:24;;;;;;;11.40;7.88;;;;;;;;;;5075093;28;20189;-70
2022/04/27 01:35:51;;;;;;;13.10;7.97;;;;;;;;;;5075132;28;20208;-70
2022/04/27 01:38:19;;;;;;;12.93;8.43;;;;;;;;;;5074543;28;20221;-70
2022/04/27 01:40:47;;;;;;;11.60;9.15;;;;;;;;;;5074631;28;20568;-70
2022/04/27 01:43:15;;;;;;;12.65;7.75;;;;;;;;;;5074449;28;20198;-70
2022/04/27 01:45:43;;;;;;;13.23;8.43;;;;;;;;;;5074609;28;20196;-71
2022/04/27 01:48:10;;;;;;;10.32;8.70;;;;;;;;;;5073993;28;20690;-71
2022/04/27 01:50:37;;;;;;;14.57;8.70;;;;;;;;;;5074432;28;20646;-71
2022/04/27 01:55:51;;;;;;;19.27;9.98;;;;;;;;;;5074170;28;20184;-70
2022/04/27 01:58:18;;;;;;;12.00;8.60;;;;;;;;;;5074232;28;20201;-70
2022/04/27 02:00:46;;;;;;;13.38;9.25;;;;;;;;;;5073656;28;20710;-70
2022/04/27 02:03:14;;;;;;;14.05;10.00;;;;;;;;;;5074138;28;20199;-70
2022/04/27 02:05:41;;;;;;;13.45;8.68;;;;;;;;;;5074079;28;20303;-70
2022/04/27 02:08:09;;;;;;;15.85;10.50;;;;;;;;;;5073998;28;20220;-70
2022/04/27 02:10:36;;;;;;;12.52;8.95;;;;;;;;;;5074298;28;20196;-70
2022/04/27 02:13:05;;;;;;;18.30;8.80;;;;;;;;;;5073972;28;20207;-71
2022/04/27 02:15:32;;;;;;;10.95;9.70;;;;;;;;;;5073686;28;20645;-71
2022/04/27 02:17:59;;;;;;;10.77;9.65;;;;;;;;;;5074007;28;20200;-71
2022/04/27 02:20:27;;;;;;;10.63;9.63;;;;;;;;;;5074099;28;20196;-71
2022/04/27 02:22:54;;;;;;;14.80;9.15;;;;;;;;;;5073725;28;20287;-71
2022/04/27 02:25:22;;;;;;;15.70;8.57;;;;;;;;;;5073586;28;20672;-71
2022/04/27 02:27:50;;;;;;;10.57;9.55;;;;;;;;;;5073695;28;20682;-70
2022/04/27 02:30:19;;;;;;;12.77;9.23;;;;;;;;;;5073828;28;20191;-70
2022/04/27 02:32:47;;;;;;;12.70;10.02;;;;;;;;;;5073686;28;20204;-71
2022/04/27 02:35:15;;;;;;;11.73;8.98;;;;;;;;;;5073667;28;20202;-71
2022/04/27 02:37:42;;;;;;;10.65;9.20;;;;;;;;;;5073559;28;20224;-71
2022/04/27 02:40:10;;;;;;;11.05;9.95;;;;;;;;;;5073387;28;20678;-71
2022/04/27 02:42:37;;;;;;;13.60;9.73;;;;;;;;;;5073265;28;20196;-71
2022/04/27 02:45:05;;;;;;;14.20;9.57;;;;;;;;;;5074003;28;20283;-70
2022/04/27 02:47:33;;;;;;;13.93;9.90;;;;;;;;;;5073129;28;20311;-71
2022/04/27 02:52:45;;;;;;;10.85;9.75;;;;;;;;;;5073619;28;20226;-70
2022/04/27 02:55:13;;;;;;;11.75;10.52;;;;;;;;;;5073202;28;20232;-71
2022/04/27 02:57:40;;;;;;;13.38;10.23;;;;;;;;;;5073412;28;20292;-71
2022/04/27 03:00:07;;;;;;;11.75;8.65;;;;;;;;;;5073196;28;20287;-70
2022/04/27 03:02:39;;;;;;;17.10;10.27;;;;;;;;;;5073067;28;20202;-70
2022/04/27 03:05:07;;;;;;;12.88;10.57;;;;;;;;;;5073271;28;20275;-71
2022/04/27 03:07:34;;;;;;;19.77;10.43;;;;;;;;;;5073083;28;20225;-71
2022/04/27 03:10:01;;;;;;;12.07;9.50;;;;;;;;;;5073444;28;20283;-71
2022/04/27 03:12:28;;;;;;;14.27;10.90;;;;;;;;;;5076717;28;20202;-70
2022/04/27 03:14:56;;;;;;;14.95;10.15;;;;;;;;;;5077481;28;20550;-70
2022/04/27 03:17:23;;;;;;;13.88;10.35;;;;;;;;;;5077442;28;20202;-70
2022/04/27 03:19:51;;;;;;;17.92;10.30;;;;;;;;;;5077571;28;20227;-70
2022/04/27 03:22:19;;;;;;;14.00;11.02;;;;;;;;;;5076853;28;20239;-70
2022/04/27 03:24:46;;;;;;;10.95;9.70;;;;;;;;;;5077030;28;20190;-71
2022/04/27 03:27:13;;;;;;;11.98;10.88;;;;;;;;;;5076838;28;20196;-71
2022/04/27 03:29:40;;;;;;;12.48;10.48;;;;;;;;;;5076751;28;20197;-71
2022/04/27 03:32:10;;;;;;;15.55;10.80;;;;;;;;;;5076790;28;20288;-71
2022/04/27 03:34:37;;;;;;;13.60;11.70;;;;;;;;;;5076713;28;20196;-71
2022/04/27 03:37:05;;;;;;;13.55;10.68;;;;;;;;;;5076376;28;20235;-71
2022/04/27 03:39:33;;;;;;;11.90;10.55;;;;;;;;;;5076768;28;20292;-70
2022/04/27 03:42:00;;;;;;;16.45;10.95;;;;;;;;;;5076569;28;20198;-71
2022/04/27 03:44:27;;;;;;;15.70;10.85;;;;;;;;;;5076681;28;20203;-70
2022/04/27 03:46:54;;;;;;;12.20;10.45;;;;;;;;;;5077103;28;20200;-71
2022/04/27 03:49:21;;;;;;;16.33;11.18;;;;;;;;;;5076552;28;20223;-72
2022/04/27 03:51:49;;;;;;;16.48;10.60;;;;;;;;;;5076719;28;20603;-72
2022/04/27 03:54:17;;;;;;;18.23;10.82;;;;;;;;;;5076605;28;20199;-72
2022/04/27 03:56:44;;;;;;;15.68;10.95;;;;;;;;;;5075609;28;20222;-73
2022/04/27 03:59:11;;;;;;;14.10;10.93;;;;;;;;;;5075310;28;20684;-72
2022/04/27 04:01:39;;;;;;;12.48;11.20;;;;;;;;;;5076141;28;20286;-72
2022/04/27 04:04:06;;;;;;;14.45;11.13;;;;;;;;;;5076640;28;20191;-72
2022/04/27 04:06:34;;;;;;;17.45;12.65;;;;;;;;;;5075921;28;20196;-72
2022/04/27 04:09:01;;;;;;;18.60;11.63;;;;;;;;;;5075893;28;20682;-72
2022/04/27 04:11:30;;;;;;;15.30;11.00;;;;;;;;;;5076609;28;20196;-73
2022/04/27 04:13:57;;;;;;;14.15;11.13;;;;;;;;;;5076281;28;20196;-74
2022/04/27 04:16:24;;;;;;;15.27;11.57;;;;;;;;;;5076295;28;20204;-74
2022/04/27 04:18:52;;;;;;;13.80;10.90;;;;;;;;;;5076375;28;20197;-73
2022/04/27 04:21:19;;;;;;;16.23;11.07;;;;;;;;;;5076493;28;20211;-71
2022/04/27 04:23:46;;;;;;;19.13;12.00;;;;;;;;;;5075233;28;20193;-72
2022/04/27 04:29:00;;;;;;;13.73;11.10;;;;;;;;;;5075610;28;20211;-73
2022/04/27 04:31:28;;;;;;;15.90;11.25;;;;;;;;;;5075959;28;20295;-72
2022/04/27 04:33:55;;;;;;;13.77;11.45;;;;;;;;;;5075534;28;20689;-72
2022/04/27 04:36:22;;;;;;;25.50;12.75;;;;;;;;;;5075908;28;20282;-72
2022/04/27 04:38:49;;;;;;;16.98;12.57;;;;;;;;;;5075375;28;20234;-73
2022/04/27 04:41:16;;;;;;;14.32;12.93;;;;;;;;;;5075523;28;20205;-73
2022/04/27 04:43:44;;;;;;;20.25;13.65;;;;;;;;;;5075678;28;20224;-73
2022/04/27 04:46:12;;;;;;;17.83;12.77;;;;;;;;;;5075471;28;20201;-73
2022/04/27 04:48:39;;;;;;;16.83;11.95;;;;;;;;;;5075846;28;20217;-73
2022/04/27 04:51:07;;;;;;;20.35;12.48;;;;;;;;;;5075348;28;20207;-74
2022/04/27 04:53:34;;;;;;;14.32;12.82;;;;;;;;;;5075486;28;20269;-72
2022/04/27 04:56:02;;;;;;;18.75;12.73;;;;;;;;;;5075507;28;20199;-72
2022/04/27 04:58:29;;;;;;;16.85;13.77;;;;;;;;;;5075384;28;20308;-72
2022/04/27 05:00:56;;;;;;;15.57;11.68;;;;;;;;;;5075545;28;20204;-73
2022/04/27 05:03:25;;;;;;;13.75;12.10;;;;;;;;;;5075394;28;20654;-72
2022/04/27 05:05:52;;;;;;;15.32;12.65;;;;;;;;;;5075246;28;20618;-72
2022/04/27 05:08:19;;;;;;;18.33;13.30;;;;;;;;;;5075371;28;20224;-72
2022/04/27 05:10:46;;;;;;;18.42;12.10;;;;;;;;;;5075215;28;20204;-72
2022/04/27 05:13:14;;;;;;;18.38;11.93;;;;;;;;;;5074875;28;20294;-72
2022/04/27 05:15:41;;;;;;;19.02;12.85;;;;;;;;;;5073334;28;20207;-72
2022/04/27 05:18:08;;;;;;;15.32;12.48;;;;;;;;;;5072727;28;20684;-72
2022/04/27 05:20:38;;;;;;;19.08;14.48;;;;;;;;;;5073394;28;20198;-75
2022/04/27 05:23:06;;;;;;;18.95;12.32;;;;;;;;;;5075238;28;20188;-69
2022/04/27 05:25:34;;;;;;;14.80;11.57;;;;;;;;;;5074510;28;20195;-70
2022/04/27 05:28:02;;;;;;;16.77;11.52;;;;;;;;;;5074853;28;20229;-69
2022/04/27 05:33:23;;;;;;;20.83;12.25;;;;;;;;;;5074575;28;20188;-69
2022/04/27 05:35:52;;;;;;;24.27;12.93;;;;;;;;;;5074305;28;20196;-69
2022/04/27 05:38:19;;;;;;;14.77;12.10;;;;;;;;;;5074527;28;20259;-69
2022/04/27 05:40:47;;;;;;;18.25;12.30;;;;;;;;;;5074646;28;20280;-69
2022/04/27 05:43:16;;;;;;;13.30;11.65;;;;;;;;;;5074663;28;20196;-69
2022/04/27 05:45:43;;;;;;;19.70;12.68;;;;;;;;;;5074418;28;20196;-69
2022/04/27 05:48:11;;;;;;;17.10;12.55;;;;;;;;;;5074433;28;20756;-69
2022/04/27 05:50:40;;;;;;;18.50;13.50;;;;;;;;;;5074039;28;20201;-69
2022/04/27 05:53:09;;;;;;;14.18;11.95;;;;;;;;;;5074110;28;20197;-69
2022/04/27 05:55:43;;;;;;;17.80;12.68;;;;;;;;;;5074366;28;20236;-69
2022/04/27 05:58:10;;;;;;;13.75;12.27;;;;;;;;;;5074378;28;20192;-69
2022/04/27 06:00:38;;;;;;;18.00;11.70;;;;;;;;;;5073878;28;20196;-69
2022/04/27 06:03:05;;;;;;;17.25;12.73;;;;;;;;;;5073897;28;20251;-69
2022/04/27 06:05:32;;;;;;;16.13;12.50;;;;;;;;;;5073996;28;20196;-70
2022/04/27 06:07:59;;;;;;;20.38;13.13;;;;;;;;;;5074360;28;20287;-70
2022/04/27 06:10:28;;;;;;;16.80;12.00;;;;;;;;;;5073967;28;20197;-69
2022/04/27 06:12:55;;;;;;;16.95;12.90;;;;;;;;;;5074043;28;20276;-69
2022/04/27 06:15:23;;;;;;;19.27;13.93;;;;;;;;;;5074255;28;20204;-69
2022/04/27 06:17:50;;;;;;;14.15;11.50;;;;;;;;;;5073981;28;20247;-69
2022/04/27 06:20:17;;;;;;;15.35;11.60;;;;;;;;;;5073962;28;20630;-69
2022/04/27 06:22:44;;;;;;;17.05;10.98;;;;;;;;;;5074197;28;20558;-69
2022/04/27 06:25:11;;;;;;;18.23;11.27;;;;;;;;;;5073734;28;20294;-69
2022/04/27 06:27:40;;;;;;;17.52;11.20;;;;;;;;;;5073524;28;20196;-69
2022/04/27 06:30:08;;;;;;;14.27;11.07;;;;;;;;;;5073333;28;20220;-69
2022/04/27 06:32:35;;;;;;;14.98;10.30;;;;;;;;;;5073664;28;20216;-69
2022/04/27 06:35:04;;;;;;;12.90;11.07;;;;;;;;;;5073784;28;20249;-69
2022/04/27 06:37:32;;;;;;;13.20;9.95;;;;;;;;;;5073684;28;20241;-69
2022/04/27 06:39:59;;;;;;;13.98;11.02;;;;;;;;;;5074109;28;20205;-70
2022/04/27 06:42:26;;;;;;;12.18;10.77;;;;;;;;;;5073333;28;20199;-70
2022/04/27 06:44:55;;;;;;;19.50;10.55;;;;;;;;;;5073337;28;20674;-70
2022/04/27 06:47:22;;;;;;;11.50;10.23;;;;;;;;;;5072793;28;20292;-70
2022/04/27 06:49:49;;;;;;;16.88;10.63;;;;;;;;;;5073113;28;20245;-70
2022/04/27 06:52:16;;;;;;;14.18;10.40;;;;;;;;;;5073469;28;20229;-70
2022/04/27 06:54:44;;;;;;;12.43;9.55;;;;;;;;;;5073270;28;20200;-70
2022/04/27 06:57:11;;;;;;;14.90;9.70;;;;;;;;;;5073490;28;20391;-70
2022/04/27 06:59:38;;;;;;;14.35;8.98;;;;;;;;;;5073442;28;20202;-70
2022/04/27 07:02:07;;;;;;;10.55;6.75;;;;;;;;;;5073252;28;20203;-70
2022/04/27 07:04:35;;;;;;;11.95;8.05;;;;;;;;;;5073118;28;20292;-70
2022/04/27 07:07:02;;;;;;;16.60;10.25;;;;;;;;;;5073108;28;20194;-70
2022/04/27 07:09:29;;;;;;;10.48;9.48;;;;;;;;;;5073320;28;20618;-70
2022/04/27 07:11:57;;;;;;;10.80;8.45;;;;;;;;;;5072949;28;20196;-70
2022/04/27 07:14:24;;;;;;;10.15;7.43;;;;;;;;;;5073402;28;20225;-70
2022/04/27 07:16:51;;;;;;;14.15;8.00;;;;;;;;;;5073078;28;20200;-70
2022/04/27 07:19:20;;;;;;;15.65;8.63;;;;;;;;;;5073325;28;20200;-70
2022/04/27 07:21:48;;;;;;;6.47;5.87;;;;;;;;;;5073181;28;20193;-70
2022/04/27 07:24:15;;;;;;;7.68;5.97;;;;;;;;;;5073195;28;20442;-70
2022/04/27 07:26:42;;;;;;;5.77;5.00;;;;;;;;;;5073102;28;20205;-70
2022/04/27 07:29:09;;;;;;;10.13;6.88;;;;;;;;;;5073521;28;20476;-70
2022/04/27 07:31:36;;;;;;;12.10;6.07;;;;;;;;;;5072791;28;20250;-71
2022/04/27 07:34:04;;;;;;;8.05;6.00;;;;;;;;;;5072843;28;20208;-70
2022/04/27 07:36:32;;;;;;;11.20;6.40;;;;;;;;;;5072982;28;20285;-70
2022/04/27 07:38:59;;;;;;;20.05;7.40;;;;;;;;;;5073384;28;20583;-70
2022/04/27 07:41:27;;;;;;;17.42;7.50;;;;;;;;;;5073065;28;20319;-70
2022/04/27 07:43:54;;;;;;;10.87;6.63;;;;;;;;;;5073105;28;20195;-70
2022/04/27 07:46:21;;;;;;;15.00;7.43;;;;;;;;;;5073280;28;20435;-71
2022/04/27 07:48:49;;;;;;;7.90;6.60;;;;;;;;;;5072616;28;20190;-70
2022/04/27 07:51:16;;;;;;;12.38;7.00;;;;;;;;;;5072610;28;20957;-70
2022/04/27 07:53:45;;;;;;;12.55;6.95;;;;;;;;;;5072979;28;20201;-70
2022/04/27 07:56:12;;;;;;;12.13;6.90;;;;;;;;;;5073326;28;20580;-70
2022/04/27 07:58:39;;;;;;;12.63;7.10;;;;;;;;;;5074298;28;20625;-70
2022/04/27 08:01:07;;;;;;;8.60;6.57;;;;;;;;;;5076616;28;20271;-71
2022/04/27 08:03:34;;;;;;;9.33;6.30;;;;;;;;;;5076646;28;20194;-70
2022/04/27 08:06:02;;;;;;;7.10;6.00;;;;;;;;;;5076003;28;20523;-70
2022/04/27 08:08:30;;;;;;;7.20;5.27;;;;;;;;;;5076193;28;20456;-69
2022/04/27 08:10:58;;;;;;;6.32;5.72;;;;;;;;;;5076717;28;20476;-69
2022/04/27 08:13:25;;;;;;;8.23;6.47;;;;;;;;;;5076370;28;20557;-70
2022/04/27 08:15:53;;;;;;;7.40;5.55;;;;;;;;;;5075881;28;20276;-70
2022/04/27 08:18:21;;;;;;;7.10;5.23;;;;;;;;;;5076092;28;20198;-70
2022/04/27 08:23:34;;;;;;;8.90;5.17;;;;;;;;;;5075939;28;20194;-70
2022/04/27 08:26:03;;;;;;;6.15;5.47;;;;;;;;;;5076066;28;20520;-70
2022/04/27 08:28:31;;;;;;;6.40;5.20;;;;;;;;;;5075651;28;20232;-71
2022/04/27 08:30:59;;;;;;;9.48;5.88;;;;;;;;;;5075624;28;20489;-71
2022/04/27 08:33:26;;;;;;;5.70;5.10;;;;;;;;;;5075602;28;20659;-71
2022/04/27 08:35:55;;;;;;;6.15;5.55;;;;;;;;;;5075927;28;20454;-71
2022/04/27 08:38:22;;;;;;;6.60;5.50;;;;;;;;;;5075885;28;20322;-71
2022/04/27 08:40:49;;;;;;;6.30;5.80;;;;;;;;;;5075895;28;20533;-71
2022/04/27 08:43:18;;;;;;;8.32;6.03;;;;;;;;;;5075661;28;20205;-70
2022/04/27 08:45:46;;;;;;;8.40;6.15;;;;;;;;;;5075793;28;20194;-70
2022/04/27 08:48:14;;;;;;;6.60;5.77;;;;;;;;;;5075588;28;20197;-69
2022/04/27 08:50:41;;;;;;;7.10;6.30;;;;;;;;;;5075643;28;20486;-69
2022/04/27 08:53:08;;;;;;;6.27;5.67;;;;;;;;;;5075475;28;20963;-70
2022/04/27 08:55:40;;;;;;;8.13;6.40;;;;;;;;;;5075244;28;20447;-71
2022/04/27 08:58:08;;;;;;;7.83;6.37;;;;;;;;;;5075309;28;20435;-71
2022/04/27 09:00:37;;;;;;;8.07;6.13;;;;;;;;;;5075357;28;20449;-70
2022/04/27 09:03:23;;;;;;;31.10;18.07;;;;;;;;;;5075247;28;20786;-70
2022/04/27 09:05:51;;;;;;;10.82;6.03;;;;;;;;;;5075340;28;20444;-70
2022/04/27 09:08:18;;;;;;;10.20;6.50;;;;;;;;;;5075816;28;20568;-70
2022/04/27 09:10:45;;;;;;;10.23;6.47;;;;;;;;;;5075396;28;20480;-70
2022/04/27 09:13:13;;;;;;;8.10;5.37;;;;;;;;;;5074737;28;20934;-70
2022/04/27 09:15:41;;;;;;;7.80;5.83;;;;;;;;;;5075660;28;20490;-70
2022/04/27 09:21:03;;;;;;;12.73;6.53;;;;;;;;;;5074884;28;20400;-70
2022/04/27 09:23:36;;;;;;;5.70;4.93;;;;;;;;;;5074864;28;20436;-69
2022/04/27 09:26:15;;;;;;;4.93;4.43;;;;;;;;;;5074958;28;20487;-69
2022/04/27 09:28:42;;;;;;;6.37;4.77;;;;;;;;;;5075051;28;20448;-69
2022/04/27 09:31:10;;;;;;;7.87;4.83;;;;;;;;;;5074675;28;20483;-69
2022/04/27 09:33:39;;;;;;;6.20;4.70;;;;;;;;;;5074713;28;20475;-70
2022/04/27 09:36:22;;;;;;;10.23;5.20;;;;;;;;;;5074510;28;20444;-70
2022/04/27 09:38:49;;;;;;;6.40;5.20;;;;;;;;;;5074504;28;20476;-70
2022/04/27 09:41:16;;;;;;;4.77;4.40;;;;;;;;;;5075099;28;20922;-70
2022/04/27 09:43:44;;;;;;;7.83;4.73;;;;;;;;;;5074471;28;20449;-71
2022/04/27 09:46:22;;;;;;;8.27;6.07;;;;;;;;;;5074240;28;20440;-70
2022/04/27 09:49:00;;;;;;;7.23;4.80;;;;;;;;;;5074049;28;20472;-70
2022/04/27 09:51:27;;;;;;;10.47;5.63;;;;;;;;;;5074477;28;20483;-70
2022/04/27 09:53:56;;;;;;;7.80;5.50;;;;;;;;;;5073919;28;20445;-70
2022/04/27 09:56:26;;;;;;;8.90;5.57;;;;;;;;;;5074017;28;20451;-70
2022/04/27 09:58:56;;;;;;;6.33;5.70;;;;;;;;;;5074510;28;20446;-70
2022/04/27 10:01:24;;;;;;;5.80;5.10;;;;;;;;;;5074330;28;20463;-70
2022/04/27 10:03:57;;;;;;;6.00;5.43;;;;;;;;;;5074126;28;20523;-70
2022/04/27 10:06:24;;;;;;;9.50;6.20;;;;;;;;;;5073934;28;20421;-70
2022/04/27 10:08:52;;;;;;;6.33;5.50;;;;;;;;;;5074701;28;20926;-70
2022/04/27 10:11:20;;;;;;;8.47;5.97;;;;;;;;;;5073660;28;20519;-70
2022/04/27 10:13:48;;;;;;;7.03;6.40;;;;;;;;;;5073955;28;20456;-70
2022/04/27 10:16:17;;;;;;;7.70;6.93;;;;;;;;;;5073720;28;20929;-70
2022/04/27 10:18:46;;;;;;;10.40;6.50;;;;;;;;;;5073874;28;20445;-70
2022/04/27 10:21:14;;;;;;;9.73;6.70;;;;;;;;;;5072928;28;20942;-70
2022/04/27 10:23:44;;;;;;;6.50;5.90;;;;;;;;;;5073775;28;20444;-70
2022/04/27 10:26:13;;;;;;;7.97;7.00;;;;;;;;;;5073917;28;20439;-70
2022/04/27 10:28:42;;;;;;;9.23;7.20;;;;;;;;;;5073347;28;20449;-70
2022/04/27 10:31:10;;;;;;;10.50;8.47;;;;;;;;;;5073935;28;20475;-70
2022/04/27 10:33:40;;;;;;;13.67;7.30;;;;;;;;;;5073532;28;20437;-70
2022/04/27 10:36:22;;;;;;;9.43;7.40;;;;;;;;;;5073838;28;20408;-71
2022/04/27 10:39:08;;;;;;;10.30;7.47;;;;;;;;;;5073162;28;20949;-70
2022/04/27 10:41:35;;;;;;;9.07;6.30;;;;;;;;;;5073544;28;20932;-70
2022/04/27 10:44:03;;;;;;;7.80;7.00;;;;;;;;;;5072993;28;20487;-71
2022/04/27 10:46:36;;;;;;;9.00;7.50;;;;;;;;;;5073640;28;20444;-71
2022/04/27 10:49:22;;;;;;;9.03;6.93;;;;;;;;;;5073477;28;20441;-71
2022/04/27 10:52:03;;;;;;;7.63;6.93;;;;;;;;;;5073938;28;20468;-71
2022/04/27 10:54:32;;;;;;;8.50;7.00;;;;;;;;;;5073714;28;20519;-71
2022/04/27 10:57:14;;;;;;;8.50;6.77;;;;;;;;;;5073544;28;20514;-70
2022/04/27 10:59:44;;;;;;;7.43;6.33;;;;;;;;;;5073236;28;20445;-70
2022/04/27 11:02:26;;;;;;;7.30;6.17;;;;;;;;;;5073398;28;20441;-70
2022/04/27 11:04:54;;;;;;;7.57;6.50;;;;;;;;;;5073026;28;20455;-70
2022/04/27 11:07:31;;;;;;;8.53;6.57;;;;;;;;;;5073984;28;20438;-70
2022/04/27 11:10:14;;;;;;;8.87;7.07;;;;;;;;;;5073426;28;20572;-70
2022/04/27 11:12:43;;;;;;;8.43;6.40;;;;;;;;;;5073895;28;20518;-70
2022/04/27 11:15:11;;;;;;;6.80;6.20;;;;;;;;;;5073188;28;20442;-70
2022/04/27 11:17:40;;;;;;;8.60;6.47;;;;;;;;;;5073501;28;20445;-70
2022/04/27 11:20:22;;;;;;;6.40;5.50;;;;;;;;;;5073126;28;20445;-70
2022/04/27 11:22:51;;;;;;;9.27;6.20;;;;;;;;;;5073546;28;20434;-70
2022/04/27 11:25:25;;;;;;;7.83;7.03;;;;;;;;;;5073345;28;20494;-70
2022/04/27 11:27:52;;;;;;;8.10;6.20;;;;;;;;;;5073408;28;20469;-70
2022/04/27 11:30:20;;;;;;;6.80;5.93;;;;;;;;;;5072745;28;20545;-70
2022/04/27 11:32:47;;;;;;;15.30;7.40;;;;;;;;;;5075422;28;20437;-69
2022/04/27 11:35:15;;;;;;;11.80;6.50;;;;;;;;;;5076955;28;20453;-82
2022/04/27 11:37:42;;;;;;;8.63;7.83;;;;;;;;;;5077228;28;20512;-71
2022/04/27 11:40:15;;;;;;;9.03;6.60;;;;;;;;;;5076540;28;20457;-71
2022/04/27 11:42:43;;;;;;;9.43;7.30;;;;;;;;;;5076900;28;20449;-71
2022/04/27 11:45:14;;;;;;;10.67;7.63;;;;;;;;;;5076790;28;20441;-69
2022/04/27 11:47:41;;;;;;;8.83;6.80;;;;;;;;;;5076570;28;20430;-70
2022/04/27 11:50:08;;;;;;;7.90;7.20;;;;;;;;;;5076573;28;20532;-70
2022/04/27 11:52:39;;;;;;;7.83;7.03;;;;;;;;;;5076543;28;20443;-70
2022/04/27 11:55:11;;;;;;;8.10;7.33;;;;;;;;;;5075856;28;20442;-70
2022/04/27 11:57:39;;;;;;;9.60;6.40;;;;;;;;;;5076391;28;20444;-71
2022/04/27 12:00:07;;;;;;;7.23;6.60;;;;;;;;;;5076168;28;20441;-70
2022/04/27 12:02:35;;;;;;;12.83;7.60;;;;;;;;;;5075914;28;20473;-73
2022/04/27 12:05:03;;;;;;;8.77;7.00;;;;;;;;;;5075772;28;20445;-69
2022/04/27 12:07:35;;;;;;;10.60;7.37;;;;;;;;;;5075839;28;20484;-71
2022/04/27 12:10:04;;;;;;;11.07;7.10;;;;;;;;;;5075756;28;20426;-70
2022/04/27 12:12:32;;;;;;;7.00;6.30;;;;;;;;;;5076112;28;20528;-70
2022/04/27 12:15:05;;;;;;;11.60;6.50;;;;;;;;;;5075479;28;20536;-70
2022/04/27 12:17:43;;;;;;;7.77;6.90;;;;;;;;;;5076237;28;20428;-70
2022/04/27 12:20:12;;;;;;;7.47;6.77;;;;;;;;;;5075630;28;20927;-70
2022/04/27 12:22:52;;;;;;;7.67;6.87;;;;;;;;;;5075975;28;20517;-70
2022/04/27 12:25:20;;;;;;;8.00;6.60;;;;;;;;;;5075658;28;20435;-70
2022/04/27 12:27:48;;;;;;;8.43;6.77;;;;;;;;;;5075807;28;20437;-70
2022/04/27 12:30:19;;;;;;;17.67;7.50;;;;;;;;;;5075838;28;20454;-70
2022/04/27 12:32:47;;;;;;;10.13;7.70;;;;;;;;;;5076165;28;20481;-70
2022/04/27 12:38:09;;;;;;;8.83;7.03;;;;;;;;;;5075622;28;20543;-71
2022/04/27 12:40:36;;;;;;;9.40;7.60;;;;;;;;;;5075362;28;20438;-71
2022/04/27 12:43:04;;;;;;;8.60;7.53;;;;;;;;;;5075156;28;20940;-71
2022/04/27 12:45:35;;;;;;;9.23;7.70;;;;;;;;;;5074674;28;20857;-71
2022/04/27 12:48:04;;;;;;;10.13;7.67;;;;;;;;;;5075630;28;20427;-70
2022/04/27 12:50:32;;;;;;;9.30;8.10;;;;;;;;;;5074579;28;20520;-71
2022/04/27 12:53:17;;;;;;;9.40;7.77;;;;;;;;;;5075441;28;20491;-71
2022/04/27 12:56:00;;;;;;;8.53;7.63;;;;;;;;;;5075503;28;20542;-71
2022/04/27 12:58:29;;;;;;;9.43;8.43;;;;;;;;;;5075482;28;20405;-71
2022/04/27 13:01:01;;;;;;;9.70;7.43;;;;;;;;;;5074981;28;20454;-71
2022/04/27 13:03:29;;;;;;;9.17;7.07;;;;;;;;;;5075507;28;20836;-71
2022/04/27 13:05:56;;;;;;;10.03;7.30;;;;;;;;;;5075358;28;20437;-71
2022/04/27 13:08:24;;;;;;;14.27;8.37;;;;;;;;;;5075594;28;20506;-71
2022/04/27 13:13:36;;;;;;;9.60;8.20;;;;;;;;;;5074835;28;20409;-71
2022/04/27 13:16:05;;;;;;;10.27;7.80;;;;;;;;;;5074961;28;20454;-71
2022/04/27 13:18:32;;;;;;;13.47;8.40;;;;;;;;;;5074750;28;20945;-71
2022/04/27 13:20:59;;;;;;;9.20;8.20;;;;;;;;;;5074981;28;20446;-72
2022/04/27 13:23:27;;;;;;;8.93;7.70;;;;;;;;;;5074813;28;20866;-72
2022/04/27 13:25:54;;;;;;;15.37;8.70;;;;;;;;;;5074569;28;20437;-72
2022/04/27 13:28:22;;;;;;;14.97;8.27;;;;;;;;;;5074841;28;20479;-71
2022/04/27 13:30:49;;;;;;;11.40;7.93;;;;;;;;;;5074778;28;20477;-72
2022/04/27 13:33:18;;;;;;;8.80;7.93;;;;;;;;;;5074460;28;20941;-72
2022/04/27 13:35:45;;;;;;;9.87;8.90;;;;;;;;;;5074694;28;20447;-71
2022/04/27 13:38:13;;;;;;;10.13;8.33;;;;;;;;;;5074143;28;20811;-71
2022/04/27 13:40:40;;;;;;;9.33;8.43;;;;;;;;;;5074363;28;20934;-72
2022/04/27 13:43:08;;;;;;;10.00;9.10;;;;;;;;;;5074487;28;20445;-71
2022/04/27 13:45:35;;;;;;;9.63;8.50;;;;;;;;;;5074006;28;20924;-72
2022/04/27 13:48:02;;;;;;;11.23;7.70;;;;;;;;;;5074475;28;20452;-73
2022/04/27 13:50:31;;;;;;;9.53;7.93;;;;;;;;;;5074010;28;20606;-73
2022/04/27 13:52:58;;;;;;;11.50;8.40;;;;;;;;;;5073903;28;20541;-74
2022/04/27 13:55:26;;;;;;;11.90;8.67;;;;;;;;;;5073251;28;20449;-74
2022/04/27 13:57:54;;;;;;;9.87;8.60;;;;;;;;;;5073744;28;20543;-75
2022/04/27 14:00:22;;;;;;;15.60;9.03;;;;;;;;;;5074092;28;20543;-76
2022/04/27 14:02:50;;;;;;;8.90;8.10;;;;;;;;;;5074050;28;20456;-75
2022/04/27 14:05:17;;;;;;;11.47;9.07;;;;;;;;;;5074347;28;20447;-73
2022/04/27 14:07:46;;;;;;;9.53;8.27;;;;;;;;;;5073561;28;21004;-76
2022/04/27 14:10:14;;;;;;;14.53;8.50;;;;;;;;;;5074478;28;20443;-74
2022/04/27 14:15:27;;;;;;;10.90;8.70;;;;;;;;;;5074162;28;20395;-74
2022/04/27 14:18:14;;;;;;;10.83;7.63;;;;;;;;;;5073448;28;20448;-72
2022/04/27 14:20:41;;;;;;;9.50;8.43;;;;;;;;;;5074643;28;20437;-74
2022/04/27 14:23:10;;;;;;;10.27;8.50;;;;;;;;;;5073785;28;20438;-72
2022/04/27 14:25:38;;;;;;;12.93;8.53;;;;;;;;;;5073829;28;20492;-71
2022/04/27 14:28:06;;;;;;;10.67;8.13;;;;;;;;;;5073755;28;20494;-72
2022/04/27 14:30:33;;;;;;;14.60;9.10;;;;;;;;;;5073872;28;20524;-71
2022/04/27 14:33:01;;;;;;;11.97;8.10;;;;;;;;;;5073826;28;20481;-73
2022/04/27 14:35:28;;;;;;;8.50;7.80;;;;;;;;;;5073694;28;20448;-74
2022/04/27 14:37:55;;;;;;;9.67;8.17;;;;;;;;;;5073624;28;20908;-72
2022/04/27 14:40:24;;;;;;;8.50;7.53;;;;;;;;;;5073663;28;20805;-72
2022/04/27 14:42:51;;;;;;;8.90;8.00;;;;;;;;;;5073798;28;20537;-73
2022/04/27 14:45:18;;;;;;;12.27;7.73;;;;;;;;;;5073389;28;20451;-73
2022/04/27 14:47:46;;;;;;;7.70;7.00;;;;;;;;;;5073112;28;20529;-73
2022/04/27 14:50:13;;;;;;;9.10;7.70;;;;;;;;;;5073165;28;20446;-73
2022/04/27 14:52:46;;;;;;;10.63;7.47;;;;;;;;;;5072966;28;20474;-73
2022/04/27 14:55:14;;;;;;;11.53;8.07;;;;;;;;;;5073080;28;20545;-73
2022/04/27 14:57:42;;;;;;;8.77;7.20;;;;;;;;;;5073315;28;20435;-73
2022/04/27 15:00:10;;;;;;;8.60;7.57;;;;;;;;;;5072886;28;20446;-73
2022/04/27 15:02:38;;;;;;;9.47;7.27;;;;;;;;;;5073592;28;20453;-73
2022/04/27 15:05:06;;;;;;;11.90;8.13;;;;;;;;;;5073684;28;20755;-74